createdAt,value
2023-10-10T00:00:06.609Z,14.05
2023-10-10T00:02:34.282Z,13.43
2023-10-10T00:05:13.859Z,13.05
2023-10-10T00:07:46.093Z,10.35
2023-10-10T00:10:14.974Z,14.48
2023-10-10T00:12:42.729Z,12.93
2023-10-10T00:15:21.450Z,13.55
2023-10-10T00:17:48.586Z,13.43
2023-10-10T00:20:27.072Z,12.25
2023-10-10T00:23:00.543Z,14.93
2023-10-10T00:25:32.611Z,12.00
2023-10-10T00:28:06.994Z,16.88
2023-10-10T00:30:37.447Z,13.95
2023-10-10T00:33:04.631Z,18.88
2023-10-10T00:35:37.296Z,14.73
2023-10-10T00:38:07.068Z,13.63
2023-10-10T00:40:40.126Z,16.25
2023-10-10T00:43:24.243Z,12.52
2023-10-10T00:45:56.786Z,15.43
2023-10-10T00:48:29.826Z,15.43
2023-10-10T00:51:12.878Z,18.77
2023-10-10T00:53:47.220Z,12.77
2023-10-10T00:56:15.355Z,14.73
2023-10-10T00:58:43.884Z,14.63
2023-10-10T01:01:15.476Z,16.63
2023-10-10T01:03:51.037Z,16.83
2023-10-10T01:06:28.188Z,18.27
2023-10-10T01:08:59.898Z,15.50
2023-10-10T01:11:28.291Z,19.20
2023-10-10T01:13:58.324Z,18.35
2023-10-10T01:16:27.275Z,13.57
2023-10-10T01:18:59.445Z,15.98
2023-10-10T01:21:35.335Z,17.33
2023-10-10T01:24:09.333Z,17.33
2023-10-10T01:26:39.724Z,15.60
2023-10-10T01:29:25.710Z,19.50
2023-10-10T01:32:00.595Z,21.05
2023-10-10T01:34:34.914Z,18.45
2023-10-10T01:37:14.616Z,16.70
2023-10-10T01:39:53.040Z,21.67
2023-10-10T01:42:26.021Z,16.17
2023-10-10T01:44:53.694Z,18.88
2023-10-10T01:47:27.062Z,18.63
2023-10-10T01:49:59.905Z,15.57
2023-10-10T01:52:28.822Z,15.32
2023-10-10T01:54:55.587Z,16.95
2023-10-10T01:57:23.486Z,16.05
2023-10-10T01:59:54.628Z,16.45
2023-10-10T02:02:27.042Z,17.98
2023-10-10T02:05:01.654Z,24.55
2023-10-10T02:07:35.271Z,19.63
2023-10-10T02:10:05.755Z,16.42
2023-10-10T02:12:35.154Z,17.60
2023-10-10T02:15:03.472Z,17.88
2023-10-10T02:17:31.927Z,21.58
2023-10-10T02:20:19.251Z,15.57
2023-10-10T02:22:52.643Z,16.17
2023-10-10T02:25:29.386Z,17.92
2023-10-10T02:28:16.121Z,18.98
2023-10-10T02:30:42.821Z,21.85
2023-10-10T02:33:24.250Z,18.52
2023-10-10T02:35:58.343Z,23.25
2023-10-10T02:38:33.949Z,22.08
2023-10-10T02:41:21.067Z,21.42
2023-10-10T02:44:02.682Z,27.23
2023-10-10T02:46:40.674Z,29.27
2023-10-10T02:49:23.797Z,28.58
2023-10-10T02:51:56.987Z,19.27
2023-10-10T02:54:35.878Z,25.95
2023-10-10T02:57:40.139Z,25.90
2023-10-10T03:00:17.485Z,24.45
2023-10-10T03:02:51.937Z,32.08
2023-10-10T03:05:41.995Z,27.50
2023-10-10T03:08:15.752Z,31.15
2023-10-10T03:10:55.267Z,32.55
2023-10-10T03:13:30.013Z,30.50
2023-10-10T03:16:12.496Z,32.72
2023-10-10T03:18:53.885Z,31.90
2023-10-10T03:21:37.418Z,34.10
2023-10-10T03:24:23.519Z,38.50
2023-10-10T03:27:02.151Z,37.45
2023-10-10T03:29:48.504Z,43.50
2023-10-10T03:32:32.517Z,40.03
2023-10-10T03:35:08.229Z,46.40
2023-10-10T03:37:42.534Z,47.22
2023-10-10T03:40:28.387Z,50.00
2023-10-10T03:43:14.099Z,45.92
2023-10-10T03:46:06.125Z,45.15
2023-10-10T03:48:51.414Z,45.97
2023-10-10T03:51:36.904Z,49.17
2023-10-10T03:54:24.478Z,48.58
2023-10-10T03:57:09.831Z,47.38
2023-10-10T03:59:55.660Z,52.42
2023-10-10T04:02:41.149Z,48.10
2023-10-10T04:05:28.201Z,46.92
2023-10-10T04:08:15.533Z,44.78
2023-10-10T04:11:06.107Z,44.28
2023-10-10T04:13:52.296Z,48.33
2023-10-10T04:16:37.959Z,42.78
2023-10-10T04:19:23.331Z,42.85
2023-10-10T04:22:08.968Z,49.85
2023-10-10T04:24:54.683Z,41.35
2023-10-10T04:27:40.622Z,44.63
2023-10-10T04:30:26.841Z,45.03
2023-10-10T04:33:12.520Z,45.85
2023-10-10T04:35:58.690Z,53.50
2023-10-10T04:38:47.275Z,50.55
2023-10-10T04:41:33.112Z,46.10
2023-10-10T04:44:19.692Z,57.97
2023-10-10T04:47:07.325Z,46.45
2023-10-10T04:49:52.816Z,53.35
2023-10-10T04:52:38.173Z,54.97
2023-10-10T04:55:25.278Z,47.72
2023-10-10T04:58:10.573Z,55.90
2023-10-10T05:00:55.909Z,51.70
2023-10-10T05:03:41.548Z,47.45
2023-10-10T05:06:26.965Z,51.50
2023-10-10T05:09:12.489Z,51.80
2023-10-10T05:12:06.048Z,47.22
2023-10-10T05:14:51.845Z,56.85
2023-10-10T05:17:40.532Z,51.35
2023-10-10T05:20:26.939Z,50.53
2023-10-10T05:23:12.403Z,48.80
2023-10-10T05:25:39.197Z,46.60
2023-10-10T05:28:06.682Z,49.28
2023-10-10T05:30:45.319Z,46.03
2023-10-10T05:33:14.393Z,47.50
2023-10-10T05:35:50.791Z,44.20
2023-10-10T05:38:18.331Z,53.13
2023-10-10T05:40:48.671Z,49.15
2023-10-10T05:43:18.962Z,47.80
2023-10-10T05:45:47.035Z,46.95
2023-10-10T05:48:14.417Z,42.63
2023-10-10T05:50:45.209Z,49.05
2023-10-10T05:53:12.471Z,50.47
2023-10-10T05:55:39.722Z,49.50
2023-10-10T05:58:06.973Z,47.10
2023-10-10T06:00:45.953Z,49.50
2023-10-10T06:03:16.011Z,45.55
2023-10-10T06:05:47.836Z,47.13
2023-10-10T06:08:46.904Z,51.30
2023-10-10T06:11:25.186Z,51.72
2023-10-10T06:13:55.499Z,50.92
2023-10-10T06:16:26.168Z,46.00
2023-10-10T06:18:54.338Z,50.13
2023-10-10T06:21:22.515Z,47.72
2023-10-10T06:24:05.439Z,45.97
2023-10-10T06:26:34.374Z,50.65
2023-10-10T06:29:03.651Z,47.35
2023-10-10T06:31:36.019Z,50.10
2023-10-10T06:34:21.852Z,44.47
2023-10-10T06:36:50.954Z,46.63
2023-10-10T06:39:18.026Z,47.28
2023-10-10T06:41:53.008Z,47.58
2023-10-10T06:44:41.437Z,53.05
2023-10-10T06:47:16.082Z,45.88
2023-10-10T06:49:48.367Z,46.85
2023-10-10T06:52:23.809Z,52.70
2023-10-10T06:54:57.909Z,50.65
2023-10-10T06:57:45.739Z,50.55
2023-10-10T07:00:18.192Z,54.10
2023-10-10T07:02:50.466Z,45.30
2023-10-10T07:05:21.122Z,54.00
2023-10-10T07:07:59.913Z,46.47
2023-10-10T07:10:37.380Z,51.03
2023-10-10T07:13:11.853Z,49.22
2023-10-10T07:15:44.204Z,47.72
2023-10-10T07:18:23.790Z,51.20
2023-10-10T07:21:17.855Z,46.50
2023-10-10T07:24:06.436Z,51.05
2023-10-10T07:26:43.021Z,44.72
2023-10-10T07:29:32.015Z,46.47
2023-10-10T07:32:29.552Z,47.67
2023-10-10T07:34:57.922Z,48.28
2023-10-10T07:37:29.270Z,46.90
2023-10-10T07:39:57.884Z,49.20
2023-10-10T07:42:31.471Z,44.03
2023-10-10T07:45:00.293Z,44.83
2023-10-10T07:47:28.750Z,40.95
2023-10-10T07:50:10.407Z,40.90
2023-10-10T07:52:40.668Z,43.30
2023-10-10T07:55:08.527Z,40.00
2023-10-10T07:57:57.293Z,44.80
2023-10-10T08:00:37.322Z,36.97
2023-10-10T08:03:07.170Z,40.97
2023-10-10T08:05:35.305Z,45.22
2023-10-10T08:10:41.617Z,41.92
2023-10-10T08:13:11.528Z,35.13
2023-10-10T08:15:58.802Z,35.58
2023-10-10T08:18:53.721Z,34.42
2023-10-10T08:21:24.500Z,35.45
2023-10-10T08:23:58.238Z,36.05
2023-10-10T08:26:30.688Z,30.33
2023-10-10T08:28:58.622Z,39.80
2023-10-10T08:31:26.785Z,32.00
2023-10-10T08:33:53.877Z,32.80
2023-10-10T08:36:31.125Z,36.08
2023-10-10T08:39:22.142Z,33.20
2023-10-10T08:41:49.414Z,30.38
2023-10-10T08:44:19.254Z,30.33
2023-10-10T08:46:50.227Z,28.38
2023-10-10T08:49:18.398Z,33.90
2023-10-10T08:54:17.833Z,35.85
2023-10-10T08:57:06.839Z,31.30
2023-10-10T08:59:35.041Z,36.40
2023-10-10T09:02:17.935Z,28.30
2023-10-10T09:04:45.729Z,32.90
2023-10-10T09:07:24.747Z,31.23
2023-10-10T09:10:07.974Z,31.38
2023-10-10T09:12:54.696Z,28.52
2023-10-10T09:15:22.412Z,34.65
2023-10-10T09:17:51.696Z,37.28
2023-10-10T09:20:31.995Z,38.83
2023-10-10T09:25:43.993Z,41.38
2023-10-10T09:28:18.624Z,33.67
2023-10-10T09:31:00.961Z,37.15
2023-10-10T09:33:29.354Z,35.85
2023-10-10T09:36:17.526Z,37.45
2023-10-10T09:38:48.230Z,32.92
2023-10-10T09:41:38.352Z,34.20
2023-10-10T09:44:26.525Z,36.35
2023-10-10T09:47:03.170Z,34.88
2023-10-10T09:49:56.189Z,36.38
2023-10-10T09:52:44.090Z,37.38
2023-10-10T09:55:16.589Z,36.28
2023-10-10T09:58:07.074Z,38.53
2023-10-10T10:00:39.631Z,34.38
2023-10-10T10:03:28.651Z,36.40
2023-10-10T10:06:26.768Z,39.22
2023-10-10T10:12:10.549Z,36.00
2023-10-10T10:14:47.957Z,36.50
2023-10-10T10:17:48.834Z,36.63
2023-10-10T10:20:36.096Z,39.63
2023-10-10T10:23:03.916Z,37.58
2023-10-10T10:25:36.468Z,39.55
2023-10-10T10:28:14.806Z,35.30
2023-10-10T10:30:48.917Z,38.75
2023-10-10T10:33:20.603Z,36.95
2023-10-10T10:36:08.346Z,34.08
2023-10-10T10:38:35.650Z,36.03
2023-10-10T10:41:20.084Z,37.92
2023-10-10T10:43:51.813Z,33.92
2023-10-10T10:46:29.517Z,36.92
2023-10-10T10:49:11.089Z,32.05
2023-10-10T10:51:44.104Z,34.35
2023-10-10T10:54:31.430Z,36.28
2023-10-10T10:57:04.274Z,34.05
2023-10-10T10:59:37.984Z,35.22
2023-10-10T11:02:15.575Z,35.80
2023-10-10T11:04:54.438Z,32.42
2023-10-10T11:07:31.719Z,35.95
2023-10-10T11:10:09.347Z,36.15
2023-10-10T11:12:38.504Z,35.17
2023-10-10T11:15:12.039Z,36.25
2023-10-10T11:17:40.851Z,42.53
2023-10-10T11:20:27.809Z,31.45
2023-10-10T11:23:01.716Z,34.30
2023-10-10T11:25:44.830Z,32.33
2023-10-10T11:28:27.035Z,35.55
2023-10-10T11:30:59.835Z,32.25
2023-10-10T11:33:58.024Z,35.80
2023-10-10T11:39:16.079Z,34.25
2023-10-10T11:41:43.844Z,32.53
2023-10-10T11:44:10.673Z,31.20
2023-10-10T11:46:40.295Z,36.15
2023-10-10T11:49:16.740Z,33.75
2023-10-10T11:51:48.727Z,27.58
2023-10-10T11:54:15.969Z,27.33
2023-10-10T11:56:47.694Z,29.02
2023-10-10T11:59:15.640Z,32.38
2023-10-10T12:04:22.922Z,31.25
2023-10-10T12:06:49.740Z,29.73
2023-10-10T12:09:20.889Z,24.85
2023-10-10T12:11:48.618Z,34.20
2023-10-10T12:16:51.800Z,27.05
2023-10-10T12:19:20.559Z,28.77
2023-10-10T12:21:48.003Z,29.05
2023-10-10T12:24:15.862Z,32.95
2023-10-10T12:26:43.554Z,30.25
2023-10-10T12:29:15.615Z,28.30
2023-10-10T12:31:43.349Z,25.38
2023-10-10T12:34:10.822Z,23.90
2023-10-10T12:36:42.005Z,31.83
2023-10-10T12:39:16.412Z,33.88
2023-10-10T12:41:48.305Z,25.77
2023-10-10T12:44:16.200Z,23.58
2023-10-10T12:46:45.210Z,25.13
2023-10-10T12:49:13.392Z,21.88
2023-10-10T12:51:40.760Z,25.13
2023-10-10T12:54:15.657Z,23.63
2023-10-10T12:59:33.066Z,21.92
2023-10-10T13:02:04.898Z,23.50
2023-10-10T13:04:35.705Z,19.17
2023-10-10T13:07:08.707Z,20.13
2023-10-10T13:09:44.539Z,30.67
2023-10-10T13:12:31.157Z,26.85
2023-10-10T13:15:17.694Z,25.35
2023-10-10T13:17:55.143Z,25.23
2023-10-10T13:20:23.831Z,29.42
2023-10-10T13:22:51.972Z,25.13
2023-10-10T13:25:20.514Z,23.15
2023-10-10T13:27:49.682Z,24.35
2023-10-10T13:30:21.380Z,23.70
2023-10-10T13:32:49.199Z,24.00
2023-10-10T13:35:17.694Z,21.42
2023-10-10T13:37:45.159Z,20.88
2023-10-10T13:40:22.657Z,25.92
2023-10-10T13:42:50.893Z,21.10
2023-10-10T13:45:23.586Z,21.13
2023-10-10T13:47:54.400Z,22.02
2023-10-10T13:50:42.970Z,21.10
2023-10-10T13:53:14.731Z,20.33
2023-10-10T13:55:46.506Z,21.38
2023-10-10T13:58:17.237Z,21.20
2023-10-10T14:01:00.997Z,23.10
2023-10-10T14:03:36.577Z,22.75
2023-10-10T14:06:21.112Z,23.77
2023-10-10T14:08:53.640Z,22.95
2023-10-10T14:11:25.210Z,24.00
2023-10-10T14:13:56.553Z,20.63
2023-10-10T14:16:24.952Z,22.58
2023-10-10T14:19:06.604Z,25.08
2023-10-10T14:21:34.713Z,25.00
2023-10-10T14:24:09.534Z,21.58
2023-10-10T14:26:37.927Z,22.42
2023-10-10T14:29:08.364Z,23.42
2023-10-10T14:31:49.907Z,20.17
2023-10-10T14:34:21.896Z,21.55
2023-10-10T14:36:53.546Z,21.67
2023-10-10T14:39:46.659Z,19.35
2023-10-10T14:42:18.535Z,20.77
2023-10-10T14:44:47.062Z,23.38
2023-10-10T14:47:22.438Z,21.10
2023-10-10T14:49:58.736Z,23.20
2023-10-10T14:52:26.050Z,22.55
2023-10-10T14:54:53.600Z,22.77
2023-10-10T14:57:26.813Z,19.38
2023-10-10T14:59:57.691Z,21.00
2023-10-10T15:02:29.133Z,22.83
2023-10-10T15:05:04.531Z,23.10
2023-10-10T15:07:34.795Z,21.33
2023-10-10T15:10:05.717Z,22.05
2023-10-10T15:12:34.715Z,19.58
2023-10-10T15:15:02.180Z,20.00
2023-10-10T15:20:02.822Z,17.40
2023-10-10T15:22:30.674Z,19.10
2023-10-10T15:25:02.659Z,16.35
2023-10-10T15:27:30.692Z,18.58
2023-10-10T15:29:57.738Z,12.40
2023-10-10T15:32:42.493Z,17.65
2023-10-10T15:35:16.136Z,15.27
2023-10-10T15:37:56.517Z,15.38
2023-10-10T15:40:24.371Z,21.45
2023-10-10T15:42:59.983Z,14.27
2023-10-10T15:45:27.235Z,17.67
2023-10-10T15:47:55.455Z,12.45
2023-10-10T15:50:24.069Z,12.57
2023-10-10T15:52:51.442Z,14.05
2023-10-10T15:55:28.047Z,12.70
2023-10-10T15:57:57.849Z,17.13
2023-10-10T16:00:34.678Z,14.07
2023-10-10T16:03:07.833Z,16.50
2023-10-10T16:05:44.776Z,13.75
2023-10-10T16:08:12.418Z,16.77
2023-10-10T16:13:10.563Z,14.82
2023-10-10T16:15:38.245Z,14.52
2023-10-10T16:18:10.532Z,14.23
2023-10-10T16:20:38.031Z,17.63
2023-10-10T16:23:10.609Z,14.75
2023-10-10T16:25:39.372Z,18.88
2023-10-10T16:28:07.265Z,13.52
2023-10-10T16:30:43.700Z,16.70
2023-10-10T16:33:11.343Z,16.02
2023-10-10T16:35:47.993Z,16.33
2023-10-10T16:38:23.543Z,16.08
2023-10-10T16:40:52.105Z,17.90
2023-10-10T16:43:19.700Z,14.35
2023-10-10T16:45:50.688Z,17.65
2023-10-10T16:48:18.200Z,15.63
2023-10-10T16:53:15.067Z,18.15
2023-10-10T16:55:45.220Z,16.27
2023-10-10T16:58:16.360Z,15.65
2023-10-10T17:00:50.126Z,16.48
2023-10-10T17:03:17.389Z,21.38
2023-10-10T17:05:51.868Z,16.40
2023-10-10T17:08:20.922Z,15.30
2023-10-10T17:10:55.669Z,14.82
2023-10-10T17:13:30.336Z,14.02
2023-10-10T17:16:07.340Z,15.40
2023-10-10T17:18:35.477Z,14.88
2023-10-10T17:21:06.943Z,18.23
2023-10-10T17:23:37.115Z,16.50
2023-10-10T17:26:08.636Z,13.07
2023-10-10T17:28:40.727Z,12.30
2023-10-10T17:31:09.522Z,14.85
2023-10-10T17:33:45.581Z,19.45
2023-10-10T17:36:15.072Z,13.60
2023-10-10T17:39:06.627Z,13.93
2023-10-10T17:41:36.441Z,11.60
2023-10-10T17:44:12.473Z,11.57
2023-10-10T17:46:40.419Z,14.48
2023-10-10T17:49:10.743Z,14.25
2023-10-10T17:51:40.257Z,12.00
2023-10-10T17:54:10.928Z,10.52
2023-10-10T17:56:46.114Z,15.55
2023-10-10T17:59:14.267Z,11.65
2023-10-10T18:01:43.409Z,14.10
2023-10-10T18:04:11.555Z,14.48
2023-10-10T18:06:38.830Z,10.10
2023-10-10T18:09:10.161Z,12.15
2023-10-10T18:11:37.925Z,15.38
2023-10-10T18:14:08.445Z,12.00
2023-10-10T18:16:40.212Z,12.90
2023-10-10T18:19:07.311Z,16.40
2023-10-10T18:21:34.936Z,9.77
2023-10-10T18:24:07.848Z,12.40
2023-10-10T18:26:40.700Z,10.70
2023-10-10T18:29:10.312Z,9.88
2023-10-10T18:31:43.214Z,14.70
2023-10-10T18:34:18.805Z,15.88
2023-10-10T18:36:49.467Z,12.38
2023-10-10T18:39:19.756Z,13.07
2023-10-10T18:41:47.600Z,14.25
2023-10-10T18:44:17.188Z,11.95
2023-10-10T18:46:52.610Z,10.70
2023-10-10T18:49:23.238Z,11.88
2023-10-10T18:51:55.545Z,6.75
2023-10-10T18:54:22.415Z,10.10
2023-10-10T18:56:51.101Z,11.27
2023-10-10T18:59:22.525Z,9.02
2023-10-10T19:01:50.290Z,10.27
2023-10-10T19:04:20.527Z,8.60
2023-10-10T19:06:51.540Z,12.02
2023-10-10T19:09:19.608Z,10.63
2023-10-10T19:11:46.859Z,9.13
2023-10-10T19:14:14.896Z,8.45
2023-10-10T19:16:48.685Z,7.13
2023-10-10T19:19:29.752Z,7.30
2023-10-10T19:21:58.377Z,9.23
2023-10-10T19:24:30.580Z,10.43
2023-10-10T19:26:58.368Z,8.65
2023-10-10T19:29:30.844Z,10.10
2023-10-10T19:32:00.709Z,8.02
2023-10-10T19:34:30.718Z,9.18
2023-10-10T19:37:00.068Z,8.68
2023-10-10T19:39:29.441Z,6.65
2023-10-10T19:41:59.017Z,9.13
2023-10-10T19:44:28.299Z,6.50
2023-10-10T19:46:56.337Z,9.68
2023-10-10T19:49:23.877Z,6.07
2023-10-10T19:51:51.220Z,7.05
2023-10-10T19:54:19.058Z,8.10
2023-10-10T19:59:20.753Z,7.18
2023-10-10T20:01:49.713Z,8.90
2023-10-10T20:04:20.608Z,9.90
2023-10-10T20:06:52.209Z,9.25
2023-10-10T20:09:24.347Z,8.98
2023-10-10T20:11:55.633Z,8.07
2023-10-10T20:14:32.031Z,5.65
2023-10-10T20:17:02.866Z,6.18
2023-10-10T20:19:30.253Z,9.02
2023-10-10T20:21:58.807Z,7.82
2023-10-10T20:24:27.298Z,8.23
2023-10-10T20:26:58.155Z,8.80
2023-10-10T20:29:28.225Z,9.15
2023-10-10T20:31:56.026Z,10.52
2023-10-10T20:34:25.272Z,6.93
2023-10-10T20:36:53.300Z,9.20
2023-10-10T20:41:51.473Z,6.30
2023-10-10T20:44:19.729Z,6.85
2023-10-10T20:46:50.616Z,9.77
2023-10-10T20:49:20.313Z,8.23
2023-10-10T20:51:55.860Z,8.02
2023-10-10T20:54:24.150Z,8.30
2023-10-10T20:56:53.758Z,7.75
2023-10-10T20:59:28.369Z,8.15
2023-10-10T21:01:58.638Z,9.57
2023-10-10T21:04:26.282Z,9.32
2023-10-10T21:06:53.253Z,12.23
2023-10-10T21:09:21.379Z,7.00
2023-10-10T21:11:49.077Z,11.05
2023-10-10T21:14:17.122Z,8.82
2023-10-10T21:16:47.404Z,14.23
2023-10-10T21:19:15.099Z,8.65
2023-10-10T21:21:42.789Z,13.32
2023-10-10T21:24:14.186Z,12.82
2023-10-10T21:26:41.254Z,15.07
2023-10-10T21:29:08.618Z,15.38
2023-10-10T21:31:38.057Z,12.43
2023-10-10T21:34:06.042Z,11.98
2023-10-10T21:36:34.060Z,12.65
2023-10-10T21:41:30.702Z,15.73
2023-10-10T21:43:57.650Z,12.65
2023-10-10T21:46:24.886Z,14.32
2023-10-10T21:48:53.064Z,19.02
2023-10-10T21:51:19.994Z,17.00
2023-10-10T21:53:48.653Z,15.02
2023-10-10T21:56:17.651Z,14.88
2023-10-10T21:58:48.673Z,20.00
2023-10-10T22:01:18.258Z,20.20
2023-10-10T22:03:48.130Z,21.13
2023-10-10T22:06:17.291Z,17.38
2023-10-10T22:08:48.295Z,20.20
2023-10-10T22:11:15.921Z,20.80
2023-10-10T22:13:49.697Z,23.98
2023-10-10T22:16:19.977Z,16.92
2023-10-10T22:18:48.973Z,21.20
2023-10-10T22:21:15.968Z,17.80
2023-10-10T22:23:44.196Z,19.58
2023-10-10T22:26:13.544Z,24.25
2023-10-10T22:28:40.575Z,25.27
2023-10-10T22:31:16.384Z,21.08
2023-10-10T22:33:46.297Z,25.30
2023-10-10T22:36:16.347Z,29.20
2023-10-10T22:38:47.357Z,26.70
2023-10-10T22:41:15.727Z,28.48
2023-10-10T22:43:43.184Z,23.65
2023-10-10T22:46:11.343Z,25.33
2023-10-10T22:48:38.563Z,23.48
2023-10-10T22:51:07.041Z,23.98
2023-10-10T22:53:34.097Z,22.10
2023-10-10T22:56:01.601Z,24.25
2023-10-10T22:58:29.513Z,23.90
2023-10-10T23:03:25.518Z,22.83
2023-10-10T23:05:52.752Z,23.90
2023-10-10T23:08:23.530Z,27.70
2023-10-10T23:10:50.691Z,27.08
2023-10-10T23:13:17.845Z,25.90
2023-10-10T23:15:49.573Z,28.55
2023-10-10T23:18:20.650Z,28.70
2023-10-10T23:20:48.271Z,29.25
2023-10-10T23:23:17.572Z,24.10
2023-10-10T23:25:48.506Z,30.27
2023-10-10T23:28:18.886Z,34.17
2023-10-10T23:30:45.838Z,27.70
2023-10-10T23:33:14.621Z,23.13
2023-10-10T23:35:42.868Z,30.30
2023-10-10T23:38:10.737Z,39.47
2023-10-10T23:40:47.546Z,25.48
2023-10-10T23:43:22.900Z,30.70
2023-10-10T23:46:00.172Z,24.38
2023-10-10T23:48:33.236Z,38.75
2023-10-10T23:51:00.689Z,29.77
2023-10-10T23:53:27.942Z,28.80
2023-10-10T23:55:56.526Z,26.65
2023-10-10T23:58:27.055Z,26.83
